createdAt,value
2019-02-23T00:03:10.715Z,94.64
2019-02-23T00:05:36.942Z,95.06
2019-02-23T00:08:03.279Z,95.19
2019-02-23T00:10:29.504Z,94.78
2019-02-23T00:12:55.728Z,94.80
2019-02-23T00:15:21.982Z,95.45
2019-02-23T00:17:48.204Z,95.47
2019-02-23T00:20:14.451Z,94.23
2019-02-23T00:22:40.712Z,93.95
2019-02-23T00:25:06.983Z,94.10
2019-02-23T00:27:33.252Z,94.45
2019-02-23T00:29:59.496Z,94.93
2019-02-23T00:32:25.723Z,94.99
2019-02-23T00:34:51.960Z,94.45
2019-02-23T00:37:18.196Z,95.45
2019-02-23T00:39:44.427Z,94.98
2019-02-23T00:42:10.646Z,95.19
2019-02-23T00:44:36.889Z,94.72
2019-02-23T00:47:03.124Z,93.65
2019-02-23T00:49:36.450Z,94.92
2019-02-23T00:51:57.486Z,94.68
2019-02-23T00:54:23.732Z,94.07
2019-02-23T00:56:49.970Z,94.95
2019-02-23T00:59:16.206Z,95.23
2019-02-23T01:01:42.454Z,94.31
2019-02-23T01:04:08.680Z,94.34
2019-02-23T01:06:34.921Z,95.10
2019-02-23T01:09:01.142Z,96.62
2019-02-23T01:11:27.390Z,96.43
2019-02-23T01:13:53.611Z,96.20
2019-02-23T01:16:19.852Z,95.82
2019-02-23T01:18:46.075Z,96.17
2019-02-23T01:21:12.324Z,95.95
2019-02-23T01:23:38.551Z,95.88
2019-02-23T01:26:04.800Z,95.80
2019-02-23T01:28:31.034Z,96.35
2019-02-23T01:30:57.282Z,97.42
2019-02-23T01:33:23.495Z,97.60
2019-02-23T01:35:49.731Z,97.37
2019-02-23T01:38:15.950Z,97.18
2019-02-23T01:41:23.507Z,96.99
2019-02-23T01:43:49.735Z,97.38
2019-02-23T01:46:15.973Z,96.42
2019-02-23T01:48:42.200Z,96.34
2019-02-23T01:51:08.441Z,97.19
2019-02-23T01:53:34.690Z,97.47
2019-02-23T01:56:00.943Z,97.04
2019-02-23T01:58:27.167Z,97.41
2019-02-23T02:00:53.417Z,97.42
2019-02-23T02:03:19.755Z,97.02
2019-02-23T02:05:45.974Z,96.65
2019-02-23T02:08:12.216Z,97.26
2019-02-23T02:10:38.442Z,97.41
2019-02-23T02:13:04.683Z,97.49
2019-02-23T02:18:18.527Z,97.49
2019-02-23T02:20:44.758Z,97.59
2019-02-23T02:23:10.995Z,97.77
2019-02-23T02:25:37.222Z,97.61
2019-02-23T02:28:03.467Z,97.36
2019-02-23T02:30:29.697Z,97.54
2019-02-23T02:32:55.947Z,97.55
2019-02-23T02:35:22.155Z,97.28
2019-02-23T02:37:48.394Z,96.43
2019-02-23T02:40:14.616Z,95.77
2019-02-23T02:42:40.860Z,95.94
2019-02-23T02:45:48.402Z,96.92
2019-02-23T02:48:14.637Z,97.92
2019-02-23T02:50:40.863Z,98.60
2019-02-23T02:53:07.129Z,98.71
2019-02-23T02:55:33.355Z,98.68
2019-02-23T02:57:59.599Z,98.51
2019-02-23T03:00:25.827Z,98.44
2019-02-23T03:02:52.069Z,98.16
2019-02-23T03:05:18.334Z,98.22
2019-02-23T03:07:44.545Z,98.56
2019-02-23T03:10:10.767Z,98.66
2019-02-23T03:12:37.007Z,98.90
2019-02-23T03:18:03.881Z,98.76
2019-02-23T03:20:36.634Z,98.53
2019-02-23T03:22:58.251Z,98.36
2019-02-23T03:25:24.474Z,98.22
2019-02-23T03:27:50.696Z,97.89
2019-02-23T03:30:16.941Z,97.76
2019-02-23T03:32:43.168Z,97.45
2019-02-23T03:35:09.511Z,97.03
2019-02-23T03:37:35.739Z,96.44
2019-02-23T03:40:02.084Z,96.46
2019-02-23T03:42:28.310Z,97.07
2019-02-23T03:44:54.545Z,97.87
2019-02-23T03:47:20.766Z,98.06
2019-02-23T03:49:47.007Z,98.29
2019-02-23T03:52:13.253Z,98.18
2019-02-23T03:55:20.798Z,98.01
2019-02-23T03:57:47.031Z,97.85
2019-02-23T04:00:13.266Z,98.16
2019-02-23T04:02:39.497Z,98.22
2019-02-23T04:05:05.831Z,97.91
2019-02-23T04:07:32.186Z,97.79
2019-02-23T04:09:58.401Z,97.52
2019-02-23T04:12:24.628Z,97.14
2019-02-23T04:14:50.868Z,97.44
2019-02-23T04:17:17.106Z,98.01
2019-02-23T04:19:43.342Z,98.24
2019-02-23T04:22:09.560Z,97.96
2019-02-23T04:24:35.795Z,97.31
2019-02-23T04:27:02.025Z,96.64
2019-02-23T04:29:28.260Z,96.52
2019-02-23T04:31:54.483Z,96.63
2019-02-23T04:34:20.711Z,96.72
2019-02-23T04:36:46.975Z,96.61
2019-02-23T04:39:13.208Z,96.73
2019-02-23T04:41:39.448Z,96.44
2019-02-23T04:44:05.680Z,96.02
2019-02-23T04:46:31.915Z,96.32
2019-02-23T04:48:58.156Z,96.56
2019-02-23T04:51:24.415Z,96.81
2019-02-23T04:53:50.659Z,96.92
2019-02-23T04:56:16.893Z,96.91
2019-02-23T04:58:43.135Z,97.03
2019-02-23T05:01:09.364Z,97.16
2019-02-23T05:03:35.583Z,97.06
2019-02-23T05:06:01.826Z,96.91
2019-02-23T05:08:28.068Z,96.98
2019-02-23T05:10:54.304Z,97.17
2019-02-23T05:13:20.531Z,97.44
2019-02-23T05:15:46.788Z,97.65
2019-02-23T05:18:13.028Z,97.55
2019-02-23T05:20:39.248Z,97.59
2019-02-23T05:23:05.488Z,97.53
2019-02-23T05:25:31.724Z,97.35
2019-02-23T05:27:57.976Z,97.46
2019-02-23T05:30:24.206Z,97.54
2019-02-23T05:32:50.450Z,97.59
2019-02-23T05:35:57.991Z,97.35
2019-02-23T05:38:24.218Z,97.45
2019-02-23T05:40:50.447Z,97.54
2019-02-23T05:43:16.687Z,97.72
2019-02-23T05:45:42.981Z,97.71
2019-02-23T05:48:09.291Z,97.75
2019-02-23T05:50:35.523Z,97.83
2019-02-23T05:53:01.779Z,97.72
2019-02-23T05:55:28.011Z,97.92
2019-02-23T05:57:54.243Z,98.64
2019-02-23T06:00:20.484Z,99.15
2019-02-23T06:02:46.710Z,99.59
2019-02-23T06:05:12.931Z,99.85
2019-02-23T06:07:39.232Z,100.00
2019-02-23T06:13:19.404Z,100.00
2019-02-23T06:15:45.649Z,100.00
2019-02-23T06:18:11.885Z,100.00
2019-02-23T06:20:38.119Z,100.00
2019-02-23T06:23:04.359Z,100.00
2019-02-23T06:25:30.619Z,100.00
2019-02-23T06:27:56.820Z,100.00
2019-02-23T06:30:23.041Z,100.00
2019-02-23T06:32:49.286Z,100.00
2019-02-23T06:35:15.506Z,100.00
2019-02-23T06:37:41.743Z,100.00
2019-02-23T06:40:49.286Z,100.00
2019-02-23T06:43:15.528Z,100.00
2019-02-23T06:45:41.753Z,100.00
2019-02-23T06:48:07.999Z,100.00
2019-02-23T06:50:34.224Z,100.00
2019-02-23T06:53:00.474Z,100.00
2019-02-23T06:55:26.702Z,100.00
2019-02-23T06:57:52.946Z,100.00
2019-02-23T07:00:19.164Z,100.00
2019-02-23T07:02:45.405Z,100.00
2019-02-23T07:05:11.636Z,100.00
2019-02-23T07:07:37.854Z,100.00
2019-02-23T07:10:45.401Z,100.00
2019-02-23T07:13:11.639Z,100.00
2019-02-23T07:15:37.870Z,100.00
2019-02-23T07:18:04.106Z,100.00
2019-02-23T07:20:30.358Z,100.00
2019-02-23T07:22:56.580Z,100.00
2019-02-23T07:25:22.864Z,100.00
2019-02-23T07:27:49.131Z,100.00
2019-02-23T07:30:15.379Z,100.00
2019-02-23T07:32:41.603Z,100.00
2019-02-23T07:35:07.837Z,100.00
2019-02-23T07:37:34.060Z,100.00
2019-02-23T07:40:00.398Z,100.00
2019-02-23T07:42:26.621Z,99.38
2019-02-23T07:44:52.877Z,98.69
2019-02-23T07:47:19.119Z,99.22
2019-02-23T07:49:45.355Z,99.71
2019-02-23T07:52:11.577Z,99.55
2019-02-23T07:54:37.828Z,99.18
2019-02-23T07:57:04.051Z,99.15
2019-02-23T07:59:30.303Z,98.98
2019-02-23T08:01:56.532Z,99.07
2019-02-23T08:04:22.783Z,98.24
2019-02-23T08:06:49.017Z,98.47
2019-02-23T08:09:15.278Z,98.17
2019-02-23T08:11:41.514Z,98.44
2019-02-23T08:14:07.757Z,98.79
2019-02-23T08:16:33.974Z,97.78
2019-02-23T08:19:00.202Z,98.00
2019-02-23T08:21:26.439Z,98.01
2019-02-23T08:23:52.670Z,97.36
2019-02-23T08:26:18.907Z,96.96
2019-02-23T08:28:45.140Z,96.62
2019-02-23T08:31:13.279Z,95.87
2019-02-23T08:33:39.515Z,95.53
2019-02-23T08:36:05.752Z,95.86
2019-02-23T08:38:31.995Z,95.92
2019-02-23T08:40:58.230Z,96.46
2019-02-23T08:43:24.456Z,95.58
2019-02-23T08:45:50.808Z,94.96
2019-02-23T08:48:17.046Z,94.58
2019-02-23T08:50:43.295Z,94.11
2019-02-23T08:53:09.548Z,93.86
2019-02-23T08:55:35.793Z,93.54
2019-02-23T08:58:02.041Z,93.14
2019-02-23T09:00:28.280Z,92.41
2019-02-23T09:02:54.511Z,92.99
2019-02-23T09:05:20.751Z,93.26
2019-02-23T09:07:47.118Z,92.93
2019-02-23T09:10:54.743Z,93.27
2019-02-23T09:13:20.974Z,92.76
2019-02-23T09:15:47.230Z,92.45
2019-02-23T09:18:13.462Z,92.03
2019-02-23T09:20:39.709Z,92.69
2019-02-23T09:23:05.944Z,93.25
2019-02-23T09:25:32.209Z,93.35
2019-02-23T09:27:58.431Z,93.19
2019-02-23T09:30:24.671Z,92.94
2019-02-23T09:32:50.919Z,92.62
2019-02-23T09:35:17.144Z,93.42
2019-02-23T09:37:43.384Z,93.14
2019-02-23T09:40:29.372Z,92.34
2019-02-23T09:42:55.614Z,92.74
2019-02-23T09:45:21.843Z,92.58
2019-02-23T09:47:48.084Z,92.71
2019-02-23T09:50:14.316Z,92.36
2019-02-23T09:52:40.577Z,92.32
2019-02-23T09:58:20.771Z,91.86
2019-02-23T10:00:46.977Z,92.12
2019-02-23T10:03:13.218Z,91.49
2019-02-23T10:05:39.504Z,91.20
2019-02-23T10:08:05.690Z,91.23
2019-02-23T10:10:31.921Z,90.72
2019-02-23T10:12:58.160Z,90.59
2019-02-23T10:15:24.413Z,90.62
2019-02-23T10:17:50.648Z,91.07
2019-02-23T10:20:16.888Z,91.05
2019-02-23T10:22:43.138Z,91.01
2019-02-23T10:25:09.363Z,91.02
2019-02-23T10:27:35.607Z,90.74
2019-02-23T10:30:01.951Z,90.68
2019-02-23T10:32:28.189Z,91.10
2019-02-23T10:34:54.419Z,90.67
2019-02-23T10:37:20.668Z,90.54
2019-02-23T10:39:46.901Z,90.38
2019-02-23T10:42:13.145Z,90.16
2019-02-23T10:44:39.373Z,90.11
2019-02-23T10:47:05.605Z,89.81
2019-02-23T10:49:31.850Z,90.22
2019-02-23T10:51:58.078Z,90.65
2019-02-23T10:54:24.328Z,89.73
2019-02-23T10:56:50.557Z,90.25
2019-02-23T10:59:16.810Z,90.73
2019-02-23T11:01:43.139Z,90.74
2019-02-23T11:04:09.386Z,91.36
2019-02-23T11:06:35.620Z,90.84
2019-02-23T11:09:01.881Z,89.66
2019-02-23T11:11:28.097Z,90.34
2019-02-23T11:13:54.348Z,90.44
2019-02-23T11:16:20.641Z,90.75
2019-02-23T11:18:46.943Z,90.40
2019-02-23T11:21:13.174Z,89.45
2019-02-23T11:23:44.374Z,90.26
2019-02-23T11:26:07.674Z,90.50
2019-02-23T11:28:33.917Z,90.48
2019-02-23T11:31:00.145Z,90.67
2019-02-23T11:33:26.396Z,90.75
2019-02-23T11:35:52.627Z,90.91
2019-02-23T11:38:18.878Z,90.17
2019-02-23T11:40:45.118Z,90.56
2019-02-23T11:43:11.349Z,90.61
2019-02-23T11:45:37.597Z,91.29
2019-02-23T11:48:03.835Z,89.70
2019-02-23T11:50:30.095Z,90.74
2019-02-23T11:52:56.331Z,90.92
2019-02-23T11:55:22.603Z,90.12
2019-02-23T11:57:48.840Z,90.75
2019-02-23T12:00:15.094Z,89.96
2019-02-23T12:02:51.711Z,90.18
2019-02-23T12:05:21.419Z,90.52
2019-02-23T12:07:47.658Z,90.67
2019-02-23T12:10:55.224Z,90.39
2019-02-23T12:13:21.463Z,89.49
2019-02-23T12:15:47.716Z,90.06
2019-02-23T12:18:13.965Z,89.84
2019-02-23T12:20:40.207Z,90.12
2019-02-23T12:23:06.454Z,89.89
2019-02-23T12:25:32.706Z,89.67
2019-02-23T12:27:58.938Z,89.63
2019-02-23T12:30:25.173Z,90.13
2019-02-23T12:32:51.482Z,90.32
2019-02-23T12:35:17.760Z,90.11
2019-02-23T12:37:43.994Z,90.03
2019-02-23T12:40:10.370Z,90.09
2019-02-23T12:42:36.626Z,90.04
2019-02-23T12:45:44.170Z,89.82
2019-02-23T12:48:10.497Z,89.24
2019-02-23T12:50:36.738Z,89.86
2019-02-23T12:53:03.004Z,90.85
2019-02-23T12:55:29.363Z,91.21
2019-02-23T12:57:55.596Z,91.28
2019-02-23T13:00:21.851Z,91.21
2019-02-23T13:02:48.078Z,90.72
2019-02-23T13:05:14.435Z,91.02
2019-02-23T13:07:40.666Z,91.37
2019-02-23T13:10:48.218Z,91.24
2019-02-23T13:13:53.949Z,91.68
2019-02-23T13:17:01.516Z,91.64
2019-02-23T13:20:07.284Z,91.67
2019-02-23T13:23:14.833Z,91.77
2019-02-23T13:29:33.824Z,91.94
2019-02-23T13:32:39.611Z,91.53
2019-02-23T13:38:59.016Z,92.10
2019-02-23T13:51:00.318Z,91.98
2019-02-23T13:54:06.077Z,92.96
2019-02-23T14:00:13.053Z,92.53
2019-02-23T14:03:18.795Z,92.84
2019-02-23T14:09:18.967Z,92.89
2019-02-23T14:12:24.734Z,93.17
2019-02-23T14:15:30.491Z,93.08
2019-02-23T14:18:36.235Z,93.39
2019-02-23T14:21:41.989Z,93.23
2019-02-23T14:28:01.853Z,94.10
2019-02-23T14:31:07.593Z,94.02
2019-02-23T14:34:15.151Z,94.02
2019-02-23T14:37:20.903Z,94.17
2019-02-23T14:40:26.657Z,94.13
2019-02-23T14:43:32.402Z,94.09
2019-02-23T14:46:38.149Z,94.18
2019-02-23T14:49:45.710Z,94.38
2019-02-23T14:52:51.495Z,93.18
2019-02-23T14:55:57.260Z,93.00
2019-02-23T14:59:04.779Z,94.49
2019-02-23T15:05:24.273Z,95.42
2019-02-23T15:11:30.778Z,95.87
2019-02-23T15:14:36.527Z,93.67
2019-02-23T15:20:55.563Z,95.72
2019-02-23T15:27:02.258Z,95.12
2019-02-23T15:30:08.001Z,95.75
2019-02-23T15:33:13.753Z,96.07
2019-02-23T15:36:19.497Z,96.25
2019-02-23T15:45:27.566Z,100.00
2019-02-23T15:48:35.135Z,100.00
2019-02-23T15:51:01.348Z,100.00
2019-02-23T15:53:27.635Z,100.00
2019-02-23T15:55:53.947Z,100.00
2019-02-23T15:58:20.191Z,100.00
2019-02-23T16:03:34.037Z,100.00
2019-02-23T16:06:00.271Z,100.00
2019-02-23T16:08:26.519Z,100.00
2019-02-23T16:10:52.738Z,100.00
2019-02-23T16:13:18.979Z,100.00
2019-02-23T16:15:45.208Z,100.00
2019-02-23T16:18:11.455Z,100.00
2019-02-23T16:20:37.706Z,100.00
2019-02-23T16:23:03.933Z,100.00
2019-02-23T16:25:37.982Z,99.96
2019-02-23T16:27:58.308Z,99.75
2019-02-23T16:30:24.540Z,100.00
2019-02-23T16:32:50.806Z,100.00
2019-02-23T16:35:17.020Z,100.00
2019-02-23T16:37:43.251Z,100.00
2019-02-23T16:40:09.504Z,100.00
2019-02-23T16:42:35.734Z,100.00
2019-02-23T16:47:58.901Z,100.00
2019-02-23T16:50:25.155Z,99.97
2019-02-23T16:52:51.387Z,99.93
2019-02-23T16:55:17.643Z,99.91
2019-02-23T16:57:43.875Z,99.73
2019-02-23T17:00:10.121Z,99.01
2019-02-23T17:02:36.454Z,98.27
2019-02-23T17:07:57.060Z,97.88
2019-02-23T17:10:23.300Z,98.37
2019-02-23T17:12:49.545Z,98.33
2019-02-23T17:15:15.806Z,97.86
2019-02-23T17:17:42.024Z,98.08
2019-02-23T17:20:08.268Z,98.79
2019-02-23T17:22:34.518Z,98.42
2019-02-23T17:25:00.728Z,98.35
2019-02-23T17:27:36.812Z,98.12
2019-02-23T17:29:55.103Z,98.84
2019-02-23T17:32:21.328Z,98.73
2019-02-23T17:34:47.570Z,98.42
2019-02-23T17:37:13.822Z,98.33
2019-02-23T17:39:40.064Z,98.37
2019-02-23T17:42:06.288Z,98.27
2019-02-23T17:44:32.528Z,98.18
2019-02-23T17:46:58.763Z,97.89
2019-02-23T17:49:24.999Z,97.66
2019-02-23T17:51:51.246Z,97.75
2019-02-23T17:54:17.488Z,97.54
2019-02-23T17:56:43.736Z,97.35
2019-02-23T17:59:09.975Z,97.94
2019-02-23T18:01:36.239Z,98.37
2019-02-23T18:04:02.463Z,97.86
2019-02-23T18:06:28.710Z,97.15
2019-02-23T18:08:54.939Z,97.25
2019-02-23T18:11:21.185Z,97.82
2019-02-23T18:13:47.411Z,98.04
2019-02-23T18:16:13.656Z,98.28
2019-02-23T18:18:39.900Z,97.90
2019-02-23T18:21:06.150Z,97.79
2019-02-23T18:23:32.375Z,97.85
2019-02-23T18:25:58.635Z,97.37
2019-02-23T18:28:24.874Z,97.84
2019-02-23T18:30:51.119Z,97.80
2019-02-23T18:33:17.344Z,98.09
2019-02-23T18:35:43.584Z,97.81
2019-02-23T18:38:09.812Z,98.24
2019-02-23T18:40:36.047Z,98.28
2019-02-23T18:43:02.288Z,98.03
2019-02-23T18:45:28.518Z,97.74
2019-02-23T18:47:54.755Z,97.77
2019-02-23T18:50:21.810Z,97.75
2019-02-23T18:52:49.131Z,97.76
2019-02-23T18:55:15.386Z,97.94
2019-02-23T18:57:41.623Z,98.22
2019-02-23T19:03:21.134Z,97.67
2019-02-23T19:05:49.951Z,97.54
2019-02-23T19:08:15.516Z,97.59
2019-02-23T19:10:41.795Z,97.96
2019-02-23T19:13:08.538Z,97.83
2019-02-23T19:15:36.146Z,97.51
2019-02-23T19:18:02.390Z,97.88
2019-02-23T19:20:28.621Z,97.90
2019-02-23T19:22:54.960Z,97.66
2019-02-23T19:25:21.192Z,97.45
2019-02-23T19:27:47.430Z,97.11
2019-02-23T19:30:13.657Z,96.72
2019-02-23T19:32:40.004Z,96.65
2019-02-23T19:35:47.532Z,96.46
2019-02-23T19:38:13.774Z,96.98
2019-02-23T19:40:40.006Z,97.19
2019-02-23T19:43:06.252Z,97.21
2019-02-23T19:45:32.484Z,97.74
2019-02-23T19:47:58.739Z,98.13
2019-02-23T19:56:46.590Z,98.07
2019-02-23T19:59:08.254Z,98.02
2019-02-23T20:01:34.486Z,97.72
2019-02-23T20:04:00.728Z,97.55
2019-02-23T20:06:26.956Z,97.48
2019-02-23T20:08:53.196Z,97.57
2019-02-23T20:11:19.432Z,97.98
2019-02-23T20:13:45.683Z,97.92
2019-02-23T20:16:11.908Z,98.14
2019-02-23T20:18:38.156Z,98.29
2019-02-23T20:21:04.395Z,98.55
2019-02-23T20:23:30.675Z,98.93
2019-02-23T20:25:56.927Z,99.27
2019-02-23T20:28:23.181Z,99.35
2019-02-23T20:30:49.404Z,99.38
2019-02-23T20:33:15.651Z,99.42
2019-02-23T20:35:41.885Z,99.65
2019-02-23T20:38:08.145Z,99.70
2019-02-23T20:40:34.377Z,99.68
2019-02-23T20:43:00.617Z,99.66
2019-02-23T20:45:26.861Z,99.65
2019-02-23T20:47:53.088Z,99.81
2019-02-23T20:50:19.328Z,99.81
2019-02-23T20:52:45.561Z,99.88
2019-02-23T20:55:11.826Z,100.00
2019-02-23T20:57:38.055Z,100.00
2019-02-23T21:00:45.606Z,100.00
2019-02-23T21:03:11.837Z,100.00
2019-02-23T21:08:23.887Z,100.00
2019-02-23T21:10:50.137Z,100.00
2019-02-23T21:13:16.367Z,100.00
2019-02-23T21:15:42.614Z,100.00
2019-02-23T21:18:08.840Z,99.89
2019-02-23T21:20:35.096Z,99.69
2019-02-23T21:23:01.341Z,99.56
2019-02-23T21:25:27.582Z,99.59
2019-02-23T21:27:53.808Z,99.75
2019-02-23T21:30:20.046Z,99.67
2019-02-23T21:32:46.285Z,99.46
2019-02-23T21:35:12.519Z,99.26
2019-02-23T21:37:38.744Z,98.96
2019-02-23T21:40:46.287Z,98.92
2019-02-23T21:43:12.513Z,98.83
2019-02-23T21:45:38.763Z,98.74
2019-02-23T21:48:04.997Z,98.52
2019-02-23T21:50:31.236Z,98.31
2019-02-23T21:52:57.506Z,98.35
2019-02-23T21:55:23.756Z,98.46
2019-02-23T21:57:50.001Z,98.50
2019-02-23T22:00:16.233Z,98.48
2019-02-23T22:02:42.460Z,98.58
2019-02-23T22:05:12.326Z,98.57
2019-02-23T22:07:36.843Z,98.43
2019-02-23T22:10:44.398Z,98.39
2019-02-23T22:13:10.634Z,98.44
2019-02-23T22:15:36.879Z,98.62
2019-02-23T22:18:03.116Z,98.68
2019-02-23T22:21:10.689Z,98.67
2019-02-23T22:23:36.937Z,98.87
2019-02-23T22:26:03.171Z,98.93
2019-02-23T22:28:29.408Z,99.04
2019-02-23T22:30:55.651Z,99.20
2019-02-23T22:33:21.911Z,99.74
2019-02-23T22:35:48.230Z,100.00
2019-02-23T22:38:14.461Z,100.00
2019-02-23T22:40:40.694Z,100.00
2019-02-23T22:43:13.836Z,100.00
2019-02-23T22:45:40.087Z,100.00
2019-02-23T22:48:06.335Z,100.00
2019-02-23T22:50:32.568Z,100.00
2019-02-23T22:52:58.814Z,100.00
2019-02-23T22:55:25.059Z,99.87
2019-02-23T22:57:51.298Z,98.95
2019-02-23T23:00:37.380Z,98.29
2019-02-23T23:03:03.624Z,97.85
2019-02-23T23:05:29.848Z,99.12
2019-02-23T23:07:56.101Z,98.58
2019-02-23T23:10:22.332Z,98.40
2019-02-23T23:12:48.581Z,98.63
2019-02-23T23:15:14.813Z,98.60
2019-02-23T23:17:41.060Z,98.64
2019-02-23T23:20:07.292Z,98.53
2019-02-23T23:22:33.521Z,98.48
2019-02-23T23:24:59.745Z,98.56
2019-02-23T23:27:25.991Z,98.54
2019-02-23T23:29:52.254Z,98.63
2019-02-23T23:32:18.497Z,98.59
2019-02-23T23:34:44.741Z,98.74
2019-02-23T23:37:10.977Z,98.43
2019-02-23T23:39:37.212Z,97.88
2019-02-23T23:42:03.456Z,97.96
2019-02-23T23:44:29.680Z,97.96
2019-02-23T23:46:55.919Z,98.22
2019-02-23T23:49:22.148Z,98.37
2019-02-23T23:51:48.373Z,98.16
2019-02-23T23:54:14.624Z,98.06
2019-02-23T23:56:40.858Z,98.00
2019-02-23T23:59:07.103Z,98.01
